Time;durP1;ratioP1;P1;durP2;ratioP2;P2;SDS_P1;SDS_P2;PMS_P1;PMS_P2;Temp;Humidity;BMP_temperature;BMP_pressure;BME280_temperature;BME280_humidity;BME280_pressure;Samples;Min_cycle;Max_cycle;Signal;HPM_P1;HPM_P2
2023/02/19 00:00:09;;;;;;;;;;;;;;;6.65;100.00;98496.86;67741;1279;1016375;-62
2023/02/19 00:03:32;;;;;;;;;;;;;;;6.73;100.00;98495.45;67779;1279;1016071;-61
2023/02/19 00:06:34;;;;;;;;;;;;;;;6.70;100.00;98495.59;67774;1279;1016418;-61
2023/02/19 00:09:36;;;;;;;;;;;;;;;6.71;100.00;98491.87;67719;1279;1016386;-62
2023/02/19 00:12:39;;;;;;;;;;;;;;;6.66;100.00;98498.73;67772;1279;1016632;-61
2023/02/19 00:15:41;;;;;;;;;;;;;;;6.64;100.00;98492.60;67748;1279;1016670;-61
2023/02/19 00:18:45;;;;;;;;;;;;;;;6.49;100.00;98496.61;67794;1279;1016440;-61
2023/02/19 00:21:48;;;;;;;;;;;;;;;6.42;100.00;98501.48;67790;1279;1016407;-62
2023/02/19 00:24:50;;;;;;;;;;;;;;;6.47;100.00;98488.58;67779;1279;1016237;-61
2023/02/19 00:27:53;;;;;;;;;;;;;;;6.51;100.00;98483.81;67736;1279;1016491;-62
2023/02/19 00:30:55;;;;;;;;;;;;;;;6.49;100.00;98486.02;67764;1279;1016256;-61
2023/02/19 00:33:58;;;;;;;;;;;;;;;6.47;100.00;98489.44;67800;1279;1016077;-61
2023/02/19 00:37:00;;;;;;;;;;;;;;;6.48;100.00;98492.16;67791;1279;1016362;-61
2023/02/19 00:40:03;;;;;;;;;;;;;;;6.49;100.00;98495.92;67717;1279;1016453;-62
2023/02/19 00:43:05;;;;;;;;;;;;;;;6.45;100.00;98492.28;67736;1279;1016388;-61
2023/02/19 00:46:08;;;;;;;;;;;;;;;6.46;100.00;98496.58;67790;1279;1016209;-61
2023/02/19 00:49:10;;;;;;;;;;;;;;;6.50;100.00;98503.20;67785;1279;1016447;-61
2023/02/19 00:52:13;;;;;;;;;;;;;;;6.51;100.00;98501.40;67747;1279;1016747;-62
2023/02/19 00:55:15;;;;;;;;;;;;;;;6.53;100.00;98506.67;67726;1279;1015964;-61
2023/02/19 00:58:18;;;;;;;;;;;;;;;6.60;100.00;98503.73;67781;1279;1016329;-62
2023/02/19 01:01:20;;;;;;;;;;;;;;;6.70;100.00;98496.11;67779;1279;1016449;-62
2023/02/19 01:04:22;;;;;;;;;;;;;;;6.66;100.00;98502.23;67719;1279;1016471;-62
2023/02/19 01:07:25;;;;;;;;;;;;;;;6.63;100.00;98501.35;67704;1279;1016794;-61
2023/02/19 01:10:27;;;;;;;;;;;;;;;6.68;100.00;98497.43;67748;1279;1016034;-62
2023/02/19 01:13:30;;;;;;;;;;;;;;;6.67;100.00;98492.45;67767;1279;1016463;-61
2023/02/19 01:16:32;;;;;;;;;;;;;;;6.64;100.00;98491.36;67758;1279;1016591;-62
2023/02/19 01:19:35;;;;;;;;;;;;;;;6.67;100.00;98488.77;67720;1279;1016491;-62
2023/02/19 01:22:37;;;;;;;;;;;;;;;6.79;100.00;98483.33;67713;1279;1016511;-61
2023/02/19 01:25:40;;;;;;;;;;;;;;;6.82;100.00;98487.52;67786;1279;1016583;-62
2023/02/19 01:28:42;;;;;;;;;;;;;;;6.80;100.00;98494.36;67794;1279;1016163;-61
2023/02/19 01:31:45;;;;;;;;;;;;;;;6.81;100.00;98491.19;67765;1279;1016375;-61
2023/02/19 01:34:47;;;;;;;;;;;;;;;6.86;100.00;98482.77;67710;1279;1016913;-61
2023/02/19 01:37:49;;;;;;;;;;;;;;;6.84;100.00;98489.16;67752;1279;1016369;-61
2023/02/19 01:40:52;;;;;;;;;;;;;;;6.69;100.00;98492.85;67767;1279;1016610;-62
2023/02/19 01:43:55;;;;;;;;;;;;;;;6.60;100.00;98483.38;67762;1279;1019670;-61
2023/02/19 01:46:58;;;;;;;;;;;;;;;6.69;100.00;98479.45;67675;1279;1016413;-62
2023/02/19 01:50:00;;;;;;;;;;;;;;;6.77;100.00;98475.26;67780;1279;1016050;-61
2023/02/19 01:53:04;;;;;;;;;;;;;;;6.77;100.00;98476.95;67766;1279;1016447;-62
2023/02/19 01:56:06;;;;;;;;;;;;;;;6.82;100.00;98477.62;67783;1279;1016463;-61
2023/02/19 01:59:09;;;;;;;;;;;;;;;6.75;100.00;98482.09;67762;1279;1016498;-62
2023/02/19 02:02:11;;;;;;;;;;;;;;;6.71;100.00;98474.83;67753;1279;1016101;-62
2023/02/19 02:05:14;;;;;;;;;;;;;;;6.77;100.00;98457.15;67730;1279;1016420;-61
2023/02/19 02:11:45;;;;;;;;;;;;;;;6.81;100.00;98439.41;67671;1279;1016607;-61
2023/02/19 02:14:47;;;;;;;;;;;;;;;6.85;100.00;98448.42;67741;1279;1016494;-62
2023/02/19 02:17:50;;;;;;;;;;;;;;;6.85;100.00;98448.80;67718;1279;1016433;-62
2023/02/19 02:20:52;;;;;;;;;;;;;;;6.83;100.00;98440.71;67701;1279;1015757;-61
2023/02/19 02:23:55;;;;;;;;;;;;;;;6.87;100.00;98447.94;67739;1279;1016230;-61
2023/02/19 02:26:58;;;;;;;;;;;;;;;6.90;100.00;98437.55;67731;1279;1016450;-60
2023/02/19 02:30:01;;;;;;;;;;;;;;;6.77;100.00;98433.19;67806;1279;1016295;-61
2023/02/19 02:33:03;;;;;;;;;;;;;;;6.77;100.00;98434.23;67797;1279;1016471;-61
2023/02/19 02:36:05;;;;;;;;;;;;;;;6.83;100.00;98433.23;67694;1279;1016401;-62
2023/02/19 02:39:09;;;;;;;;;;;;;;;6.76;100.00;98422.13;67765;1279;1015903;-61
2023/02/19 02:42:27;;;;;;;;;;;;;;;6.74;100.00;98417.55;67774;1279;1019067;-61
2023/02/19 02:45:35;;;;;;;;;;;;;;;6.72;100.00;98419.23;65260;1279;6373750;-61
2023/02/19 02:48:38;;;;;;;;;;;;;;;6.64;100.00;98415.30;67750;1279;1016327;-61
2023/02/19 02:51:40;;;;;;;;;;;;;;;6.63;100.00;98425.07;67720;1279;1016549;-61
2023/02/19 02:58:03;;;;;;;;;;;;;;;6.66;100.00;98422.10;67762;1279;1016390;-62
2023/02/19 03:04:26;;;;;;;;;;;;;;;6.74;100.00;98414.39;67809;1280;1016032;-61
2023/02/19 03:07:29;;;;;;;;;;;;;;;6.77;100.00;98407.45;67754;1279;1016484;-60
2023/02/19 03:10:32;;;;;;;;;;;;;;;6.82;100.00;98416.22;67746;1279;1016387;-61
2023/02/19 03:20:15;;;;;;;;;;;;;;;6.88;100.00;98419.92;67726;1279;1016189;-61
2023/02/19 03:23:17;;;;;;;;;;;;;;;6.88;100.00;98413.16;67760;1279;1015976;-61
2023/02/19 03:26:20;;;;;;;;;;;;;;;6.87;100.00;98404.54;67761;1279;1016005;-61
2023/02/19 03:29:25;;;;;;;;;;;;;;;6.89;100.00;98402.65;67726;1279;1016312;-61
2023/02/19 03:32:28;;;;;;;;;;;;;;;7.03;100.00;98403.35;67796;1279;1016373;-61
2023/02/19 03:35:30;;;;;;;;;;;;;;;7.05;100.00;98400.63;67754;1279;1016233;-62
2023/02/19 03:38:33;;;;;;;;;;;;;;;6.98;100.00;98400.13;67726;1279;1018526;-61
2023/02/19 03:41:35;;;;;;;;;;;;;;;6.90;100.00;98397.42;67712;1279;1016320;-60
2023/02/19 03:44:38;;;;;;;;;;;;;;;6.97;100.00;98398.62;67757;1279;1016478;-61
2023/02/19 03:47:40;;;;;;;;;;;;;;;6.98;100.00;98396.48;67751;1279;1016405;-61
2023/02/19 03:50:42;;;;;;;;;;;;;;;6.95;100.00;98392.78;67786;1279;1016463;-61
2023/02/19 03:53:45;;;;;;;;;;;;;;;6.98;100.00;98391.28;67722;1279;1016150;-61
2023/02/19 03:56:48;;;;;;;;;;;;;;;6.99;100.00;98380.98;67760;1279;1016503;-61
2023/02/19 03:59:50;;;;;;;;;;;;;;;7.01;100.00;98382.92;67806;1279;1016441;-61
2023/02/19 04:02:52;;;;;;;;;;;;;;;6.93;100.00;98378.31;67770;1279;1016377;-61
2023/02/19 04:05:55;;;;;;;;;;;;;;;6.92;100.00;98378.70;67724;1279;1016422;-61
2023/02/19 04:08:57;;;;;;;;;;;;;;;7.04;100.00;98383.98;67745;1279;1016494;-61
2023/02/19 04:12:01;;;;;;;;;;;;;;;7.03;100.00;98384.75;67748;1279;1018554;-61
2023/02/19 04:15:03;;;;;;;;;;;;;;;7.00;100.00;98377.97;67689;1279;1016536;-61
2023/02/19 04:18:06;;;;;;;;;;;;;;;7.00;100.00;98377.77;67788;1279;1016626;-61
2023/02/19 04:21:08;;;;;;;;;;;;;;;7.04;100.00;98372.37;67809;1279;1018404;-61
2023/02/19 04:24:10;;;;;;;;;;;;;;;7.00;100.00;98372.20;67765;1279;1016461;-61
2023/02/19 04:27:13;;;;;;;;;;;;;;;7.10;100.00;98370.29;67712;1279;1016263;-62
2023/02/19 04:30:15;;;;;;;;;;;;;;;7.19;100.00;98365.80;67752;1279;1016036;-61
2023/02/19 04:33:18;;;;;;;;;;;;;;;7.16;100.00;98364.73;67737;1279;1016362;-61
2023/02/19 04:36:20;;;;;;;;;;;;;;;7.07;100.00;98360.00;67764;1279;1016210;-61
2023/02/19 04:39:23;;;;;;;;;;;;;;;6.98;100.00;98360.13;67789;1279;1016613;-61
2023/02/19 04:42:26;;;;;;;;;;;;;;;7.01;100.00;98355.66;67726;1279;1016490;-61
2023/02/19 04:45:28;;;;;;;;;;;;;;;7.11;100.00;98351.41;67783;1279;1017167;-61
2023/02/19 04:48:30;;;;;;;;;;;;;;;7.10;100.00;98350.30;67761;1279;1016232;-60
2023/02/19 04:51:33;;;;;;;;;;;;;;;7.11;100.00;98345.19;67743;1279;1016465;-62
2023/02/19 04:54:36;;;;;;;;;;;;;;;7.09;100.00;98339.87;67741;1279;1016260;-61
2023/02/19 04:57:38;;;;;;;;;;;;;;;7.08;100.00;98342.02;67763;1279;1016487;-62
2023/02/19 05:00:41;;;;;;;;;;;;;;;7.13;100.00;98333.58;67792;1279;1016211;-62
2023/02/19 05:03:43;;;;;;;;;;;;;;;7.12;100.00;98331.75;67746;1279;1016301;-61
2023/02/19 05:06:46;;;;;;;;;;;;;;;7.02;100.00;98328.44;67721;1279;1016673;-61
2023/02/19 05:09:48;;;;;;;;;;;;;;;6.99;100.00;98323.24;67754;1279;1016532;-62
2023/02/19 05:12:51;;;;;;;;;;;;;;;7.04;100.00;98320.19;67791;1279;1016346;-61
2023/02/19 05:15:53;;;;;;;;;;;;;;;7.23;100.00;98314.25;67806;1279;1016207;-61
2023/02/19 05:18:55;;;;;;;;;;;;;;;7.31;100.00;98306.37;67744;1279;1016875;-61
2023/02/19 05:21:58;;;;;;;;;;;;;;;7.35;100.00;98300.39;67746;1279;1016347;-61
2023/02/19 05:25:00;;;;;;;;;;;;;;;7.51;100.00;98296.52;67795;1279;1016467;-61
2023/02/19 05:28:16;;;;;;;;;;;;;;;7.55;100.00;98293.71;67774;1279;1016442;-61
2023/02/19 05:31:19;;;;;;;;;;;;;;;7.57;100.00;98290.11;67795;1279;1016374;-62
2023/02/19 05:34:21;;;;;;;;;;;;;;;7.76;100.00;98290.43;67742;1279;1017683;-61
2023/02/19 05:37:24;;;;;;;;;;;;;;;7.70;100.00;98293.55;67738;1279;1018218;-62
2023/02/19 05:40:26;;;;;;;;;;;;;;;7.73;100.00;98294.60;67743;1279;1016284;-61
2023/02/19 05:43:29;;;;;;;;;;;;;;;7.84;100.00;98291.39;67747;1279;1016310;-61
2023/02/19 05:46:31;;;;;;;;;;;;;;;7.80;100.00;98283.73;67760;1279;1016443;-62
2023/02/19 05:49:34;;;;;;;;;;;;;;;7.70;100.00;98284.52;67726;1279;1016840;-61
2023/02/19 05:52:37;;;;;;;;;;;;;;;7.49;100.00;98283.56;67709;1279;1016455;-61
2023/02/19 05:55:39;;;;;;;;;;;;;;;7.37;100.00;98283.02;67784;1279;1018012;-61
2023/02/19 05:58:41;;;;;;;;;;;;;;;7.27;100.00;98285.67;67745;1279;1016027;-61
2023/02/19 06:01:44;;;;;;;;;;;;;;;7.24;100.00;98284.64;67719;1279;1016408;-62
2023/02/19 06:04:47;;;;;;;;;;;;;;;7.19;100.00;98284.55;67742;1279;1016345;-61
2023/02/19 06:07:50;;;;;;;;;;;;;;;7.16;100.00;98294.49;67810;1279;1016266;-61
2023/02/19 06:10:52;;;;;;;;;;;;;;;7.13;100.00;98291.69;67774;1279;1016564;-61
2023/02/19 06:13:55;;;;;;;;;;;;;;;7.26;100.00;98296.90;67759;1279;1016509;-62
2023/02/19 06:16:57;;;;;;;;;;;;;;;7.36;100.00;98297.21;67745;1279;1016487;-61
2023/02/19 06:20:00;;;;;;;;;;;;;;;7.42;100.00;98304.73;67735;1279;1016446;-62
2023/02/19 06:23:02;;;;;;;;;;;;;;;7.34;100.00;98312.09;67804;1279;1016269;-61
2023/02/19 06:26:05;;;;;;;;;;;;;;;7.31;100.00;98319.05;67793;1279;1016961;-61
2023/02/19 06:29:07;;;;;;;;;;;;;;;7.24;100.00;98317.83;67728;1279;1016360;-61
2023/02/19 06:32:10;;;;;;;;;;;;;;;7.24;100.00;98320.44;67730;1279;1016734;-61
2023/02/19 06:35:12;;;;;;;;;;;;;;;7.27;100.00;98326.91;67762;1279;1016552;-62
2023/02/19 06:38:15;;;;;;;;;;;;;;;7.29;100.00;98324.36;67807;1279;1016461;-61
2023/02/19 06:41:17;;;;;;;;;;;;;;;7.31;100.00;98321.15;67772;1279;1016443;-61
2023/02/19 06:44:19;;;;;;;;;;;;;;;7.33;100.00;98317.70;67739;1279;1017128;-62
2023/02/19 06:47:22;;;;;;;;;;;;;;;7.34;100.00;98315.76;67752;1279;1019566;-61
2023/02/19 06:50:24;;;;;;;;;;;;;;;7.32;100.00;98324.40;67793;1279;1016251;-61
2023/02/19 06:53:27;;;;;;;;;;;;;;;7.33;100.00;98329.19;67796;1279;1016309;-61
2023/02/19 06:56:29;;;;;;;;;;;;;;;7.28;100.00;98332.95;67739;1279;1016495;-61
2023/02/19 06:59:32;;;;;;;;;;;;;;;7.40;100.00;98329.32;67739;1279;1016465;-61
2023/02/19 07:02:34;;;;;;;;;;;;;;;7.44;100.00;98339.38;67796;1279;1016436;-61
2023/02/19 07:05:37;;;;;;;;;;;;;;;7.48;100.00;98342.64;67771;1279;1016455;-61
2023/02/19 07:08:39;;;;;;;;;;;;;;;7.59;100.00;98343.25;67763;1279;1016410;-60
2023/02/19 07:11:42;;;;;;;;;;;;;;;7.66;100.00;98337.48;67782;1279;1018705;-61
2023/02/19 07:14:45;;;;;;;;;;;;;;;7.68;100.00;98342.20;67811;1279;1017256;-61
2023/02/19 07:17:47;;;;;;;;;;;;;;;7.64;100.00;98341.73;67771;1279;1016488;-61
2023/02/19 07:20:49;;;;;;;;;;;;;;;7.57;100.00;98342.64;67714;1279;1016260;-61
2023/02/19 07:23:52;;;;;;;;;;;;;;;7.71;100.00;98340.16;67780;1279;1016482;-62
2023/02/19 07:26:55;;;;;;;;;;;;;;;7.66;100.00;98336.08;67783;1279;1016445;-61
2023/02/19 07:29:57;;;;;;;;;;;;;;;7.86;100.00;98350.96;67774;1279;1016638;-61
2023/02/19 07:33:00;;;;;;;;;;;;;;;8.04;100.00;98352.49;67757;1279;1020134;-61
2023/02/19 07:36:03;;;;;;;;;;;;;;;8.20;100.00;98358.74;67765;1280;1016753;-61
2023/02/19 07:39:07;;;;;;;;;;;;;;;7.93;100.00;98354.52;67748;1279;1018762;-62
2023/02/19 07:42:10;;;;;;;;;;;;;;;7.48;100.00;98359.70;67710;1279;1017401;-62
2023/02/19 07:45:12;;;;;;;;;;;;;;;7.29;100.00;98357.95;67779;1279;1016487;-60
2023/02/19 07:48:15;;;;;;;;;;;;;;;7.15;100.00;98364.80;67788;1279;1016373;-61
2023/02/19 07:51:17;;;;;;;;;;;;;;;7.22;100.00;98370.50;67709;1279;1016349;-61
2023/02/19 07:54:20;;;;;;;;;;;;;;;7.25;100.00;98371.55;67774;1279;1016833;-61
2023/02/19 07:57:23;;;;;;;;;;;;;;;7.34;100.00;98363.61;67789;1279;1019120;-61
2023/02/19 08:00:25;;;;;;;;;;;;;;;7.34;100.00;98365.98;67725;1279;1016504;-61
2023/02/19 08:03:28;;;;;;;;;;;;;;;7.30;100.00;98363.09;67759;1279;1016223;-60
2023/02/19 08:06:31;;;;;;;;;;;;;;;7.28;100.00;98364.09;67801;1279;1016470;-60
2023/02/19 08:09:33;;;;;;;;;;;;;;;7.18;100.00;98371.06;67813;1279;1019196;-61
2023/02/19 08:15:57;;;;;;;;;;;;;;;7.26;100.00;98371.29;67772;1279;1016514;-61
2023/02/19 08:19:00;;;;;;;;;;;;;;;7.35;100.00;98366.70;67721;1279;1016166;-61
2023/02/19 08:22:02;;;;;;;;;;;;;;;7.35;100.00;98366.66;67821;1279;1016521;-61
2023/02/19 08:25:05;;;;;;;;;;;;;;;7.37;100.00;98371.77;67832;1279;1018215;-62
2023/02/19 08:28:07;;;;;;;;;;;;;;;7.53;100.00;98370.21;67755;1279;1015930;-61
2023/02/19 08:31:10;;;;;;;;;;;;;;;7.65;100.00;98372.33;67741;1279;1016737;-62
2023/02/19 08:34:12;;;;;;;;;;;;;;;7.64;100.00;98371.30;67788;1279;1016144;-61
2023/02/19 08:37:15;;;;;;;;;;;;;;;7.54;100.00;98375.86;67758;1279;1016555;-61
2023/02/19 08:40:17;;;;;;;;;;;;;;;7.51;100.00;98378.66;67796;1279;1015994;-61
2023/02/19 08:43:20;;;;;;;;;;;;;;;7.46;100.00;98379.26;67729;1279;1016301;-61
2023/02/19 08:46:22;;;;;;;;;;;;;;;7.42;100.00;98381.58;67759;1279;1016502;-61
2023/02/19 08:49:25;;;;;;;;;;;;;;;7.47;100.00;98377.64;67803;1279;1016446;-61
2023/02/19 08:52:27;;;;;;;;;;;;;;;7.71;100.00;98379.80;67768;1279;1016468;-61
2023/02/19 08:55:30;;;;;;;;;;;;;;;7.79;100.00;98386.69;67809;1279;1018912;-61
2023/02/19 08:58:32;;;;;;;;;;;;;;;7.75;100.00;98388.45;67737;1279;1018066;-61
2023/02/19 09:01:35;;;;;;;;;;;;;;;7.85;100.00;98382.87;67735;1279;1019256;-62
2023/02/19 09:04:38;;;;;;;;;;;;;;;7.80;100.00;98388.16;67785;1279;1016512;-61
2023/02/19 09:07:40;;;;;;;;;;;;;;;7.73;100.00;98383.34;67799;1279;1016229;-61
2023/02/19 09:10:42;;;;;;;;;;;;;;;7.73;100.00;98378.27;67723;1279;1016447;-61
2023/02/19 09:13:45;;;;;;;;;;;;;;;7.71;100.00;98378.23;67758;1279;1016418;-61
2023/02/19 09:16:48;;;;;;;;;;;;;;;7.76;100.00;98383.84;67805;1279;1016417;-62
2023/02/19 09:19:51;;;;;;;;;;;;;;;7.87;100.00;98378.73;67783;1279;1018158;-61
2023/02/19 09:22:53;;;;;;;;;;;;;;;7.93;100.00;98377.36;67757;1279;1016472;-62
2023/02/19 09:25:56;;;;;;;;;;;;;;;7.97;100.00;98376.94;67663;1279;1016610;-62
2023/02/19 09:28:58;;;;;;;;;;;;;;;7.88;100.00;98382.00;67766;1279;1016136;-61
2023/02/19 09:32:01;;;;;;;;;;;;;;;7.87;100.00;98386.42;67804;1279;1016067;-61
2023/02/19 09:35:03;;;;;;;;;;;;;;;7.68;100.00;98389.54;67741;1279;1018385;-61
2023/02/19 09:38:09;;;;;;;;;;;;;;;7.71;100.00;98386.08;67808;1279;1016380;-61
2023/02/19 09:41:11;;;;;;;;;;;;;;;7.68;100.00;98393.02;67725;1279;1016496;-61
2023/02/19 09:44:14;;;;;;;;;;;;;;;7.73;100.00;98392.23;67765;1279;1017992;-61
2023/02/19 09:47:17;;;;;;;;;;;;;;;7.70;100.00;98405.09;67782;1279;1015986;-61
2023/02/19 09:50:19;;;;;;;;;;;;;;;7.64;100.00;98413.05;67772;1279;1016239;-61
2023/02/19 09:53:22;;;;;;;;;;;;;;;7.46;100.00;98414.08;67744;1279;1016441;-61
2023/02/19 09:56:24;;;;;;;;;;;;;;;7.38;100.00;98418.14;67783;1279;1016395;-61
2023/02/19 09:59:27;;;;;;;;;;;;;;;7.34;100.00;98407.77;67758;1279;1015930;-61
2023/02/19 10:02:30;;;;;;;;;;;;;;;7.24;100.00;98411.21;67752;1279;1016349;-62
2023/02/19 10:05:32;;;;;;;;;;;;;;;7.17;100.00;98415.98;67750;1279;1016190;-61
2023/02/19 10:08:36;;;;;;;;;;;;;;;7.16;100.00;98420.20;67787;1279;1016273;-61
2023/02/19 10:11:39;;;;;;;;;;;;;;;7.02;100.00;98429.98;67774;1279;1016405;-62
2023/02/19 10:14:41;;;;;;;;;;;;;;;7.04;100.00;98437.33;67698;1279;1016720;-61
2023/02/19 10:17:44;;;;;;;;;;;;;;;7.16;100.00;98437.25;67745;1279;1015972;-62
2023/02/19 10:20:46;;;;;;;;;;;;;;;7.39;100.00;98431.82;67753;1279;1016499;-61
2023/02/19 10:23:49;;;;;;;;;;;;;;;7.39;100.00;98436.39;67790;1279;1016471;-61
2023/02/19 10:26:51;;;;;;;;;;;;;;;7.30;100.00;98438.96;67717;1279;1016393;-61
2023/02/19 10:29:54;;;;;;;;;;;;;;;7.28;100.00;98439.38;67712;1279;1016498;-61
2023/02/19 10:32:56;;;;;;;;;;;;;;;7.16;100.00;98442.65;67813;1279;1016536;-61
2023/02/19 10:35:59;;;;;;;;;;;;;;;7.27;100.00;98445.20;67775;1279;1016480;-61
2023/02/19 10:39:02;;;;;;;;;;;;;;;7.42;100.00;98446.65;67739;1279;1016451;-61
2023/02/19 10:42:04;;;;;;;;;;;;;;;7.38;100.00;98450.69;67769;1279;1018651;-62
2023/02/19 10:45:07;;;;;;;;;;;;;;;7.31;100.00;98451.23;67724;1279;1016133;-61
2023/02/19 10:48:09;;;;;;;;;;;;;;;7.24;100.00;98453.17;67769;1278;1016448;-61
2023/02/19 10:51:12;;;;;;;;;;;;;;;7.16;100.00;98452.73;67715;1279;1016408;-61
2023/02/19 10:54:15;;;;;;;;;;;;;;;7.02;100.00;98451.40;67717;1279;1016163;-62
2023/02/19 10:57:18;;;;;;;;;;;;;;;7.07;100.00;98448.00;67734;1279;1016164;-61
2023/02/19 11:00:21;;;;;;;;;;;;;;;6.97;100.00;98453.88;67802;1279;1016198;-61
2023/02/19 11:03:24;;;;;;;;;;;;;;;6.96;100.00;98448.55;67706;1279;1016403;-61
2023/02/19 11:06:28;;;;;;;;;;;;;;;6.89;100.00;98452.20;67775;1279;1016499;-62
2023/02/19 11:09:31;;;;;;;;;;;;;;;6.92;100.00;98455.19;67789;1279;1016499;-61
2023/02/19 11:12:33;;;;;;;;;;;;;;;6.80;100.00;98463.11;67738;1279;1016398;-61
2023/02/19 11:15:36;;;;;;;;;;;;;;;6.63;100.00;98463.26;67711;1279;1016459;-61
2023/02/19 11:18:39;;;;;;;;;;;;;;;6.57;100.00;98469.12;67746;1279;1016912;-61
2023/02/19 11:21:42;;;;;;;;;;;;;;;6.46;100.00;98472.27;67739;1279;1016326;-61
2023/02/19 11:24:44;;;;;;;;;;;;;;;6.50;100.00;98463.73;67713;1279;1018003;-61
2023/02/19 11:27:46;;;;;;;;;;;;;;;6.55;100.00;98468.55;67789;1279;1016325;-62
2023/02/19 11:30:49;;;;;;;;;;;;;;;6.34;100.00;98468.70;67763;1279;1016493;-62
2023/02/19 11:33:51;;;;;;;;;;;;;;;6.31;100.00;98468.52;67766;1279;1016317;-62
2023/02/19 11:36:54;;;;;;;;;;;;;;;6.31;100.00;98469.55;67726;1279;1016504;-61
2023/02/19 11:39:56;;;;;;;;;;;;;;;6.24;100.00;98473.70;67718;1279;1015925;-61
2023/02/19 11:42:59;;;;;;;;;;;;;;;6.26;100.00;98471.02;67758;1279;1016552;-61
2023/02/19 11:46:01;;;;;;;;;;;;;;;6.37;100.00;98474.81;67789;1279;1016255;-62
2023/02/19 11:49:04;;;;;;;;;;;;;;;6.58;100.00;98474.45;67785;1279;1016187;-61
2023/02/19 11:52:06;;;;;;;;;;;;;;;6.79;100.00;98471.14;67705;1279;1016565;-61
2023/02/19 11:55:09;;;;;;;;;;;;;;;6.74;100.00;98479.36;67732;1279;1016616;-62
2023/02/19 11:58:11;;;;;;;;;;;;;;;6.59;100.00;98487.29;67779;1279;1016415;-61
2023/02/19 12:01:14;;;;;;;;;;;;;;;6.59;100.00;98489.34;67761;1279;1016535;-61
2023/02/19 12:04:16;;;;;;;;;;;;;;;6.64;100.00;98495.70;67675;1279;1018994;-62
2023/02/19 12:07:19;;;;;;;;;;;;;;;6.71;100.00;98501.98;67734;1279;1016299;-61
2023/02/19 12:10:21;;;;;;;;;;;;;;;6.78;100.00;98501.98;67730;1279;1016194;-61
2023/02/19 12:13:24;;;;;;;;;;;;;;;7.01;100.00;98498.34;67710;1279;1016424;-61
2023/02/19 12:16:32;;;;;;;;;;;;;;;6.92;100.00;98503.48;67743;1279;1016510;-62
2023/02/19 12:19:34;;;;;;;;;;;;;;;6.97;100.00;98502.56;67691;1279;1016400;-61
2023/02/19 12:22:36;;;;;;;;;;;;;;;7.03;100.00;98504.51;67708;1279;1016114;-62
2023/02/19 12:25:40;;;;;;;;;;;;;;;6.90;100.00;98507.75;67737;1279;1017067;-62
2023/02/19 12:28:43;;;;;;;;;;;;;;;6.70;100.00;98514.35;67744;1279;1016475;-61
2023/02/19 12:31:45;;;;;;;;;;;;;;;6.69;100.00;98519.28;67784;1279;1016449;-61
2023/02/19 12:34:48;;;;;;;;;;;;;;;6.81;100.00;98518.11;67718;1279;1016441;-61
2023/02/19 12:37:50;;;;;;;;;;;;;;;6.97;100.00;98520.97;67700;1279;1016303;-61
2023/02/19 12:40:53;;;;;;;;;;;;;;;7.07;100.00;98528.13;67705;1279;1016229;-61
2023/02/19 12:43:55;;;;;;;;;;;;;;;7.08;100.00;98524.09;67749;1279;1016493;-61
2023/02/19 12:46:58;;;;;;;;;;;;;;;7.10;100.00;98525.00;67730;1279;1016232;-61
2023/02/19 12:50:00;;;;;;;;;;;;;;;7.08;100.00;98520.76;67703;1279;1016302;-61
2023/02/19 12:53:03;;;;;;;;;;;;;;;7.08;100.00;98521.64;67696;1279;1016565;-61
2023/02/19 12:56:05;;;;;;;;;;;;;;;6.98;100.00;98534.52;67731;1279;1016244;-62
2023/02/19 12:59:08;;;;;;;;;;;;;;;7.02;100.00;98540.89;67756;1279;1016473;-62
2023/02/19 13:02:10;;;;;;;;;;;;;;;7.00;100.00;98546.56;67742;1279;1016239;-61
2023/02/19 13:05:12;;;;;;;;;;;;;;;6.97;100.00;98555.60;67725;1279;1016409;-61
2023/02/19 13:08:15;;;;;;;;;;;;;;;6.98;100.00;98562.82;67782;1279;1016436;-61
2023/02/19 13:11:17;;;;;;;;;;;;;;;7.13;100.00;98559.44;67818;1279;1016403;-61
2023/02/19 13:14:20;;;;;;;;;;;;;;;7.08;100.00;98563.17;67783;1279;1016018;-61
2023/02/19 13:17:22;;;;;;;;;;;;;;;7.30;99.83;98567.95;67712;1279;1016456;-61
2023/02/19 13:20:25;;;;;;;;;;;;;;;7.63;98.91;98567.33;67729;1279;1016076;-62
2023/02/19 13:26:49;;;;;;;;;;;;;;;7.94;93.72;98581.83;67732;1279;1016079;-60
2023/02/19 13:29:52;;;;;;;;;;;;;;;8.07;92.69;98586.02;67800;1279;1016091;-61
2023/02/19 13:32:54;;;;;;;;;;;;;;;8.21;92.36;98589.13;67727;1279;1016448;-61
2023/02/19 13:35:56;;;;;;;;;;;;;;;8.04;90.54;98600.65;67738;1279;1016194;-61
2023/02/19 13:38:59;;;;;;;;;;;;;;;7.88;87.77;98618.91;67762;1279;1016654;-61
2023/02/19 13:42:01;;;;;;;;;;;;;;;7.68;87.76;98621.71;67761;1279;1016520;-62
2023/02/19 13:45:04;;;;;;;;;;;;;;;7.60;88.05;98620.73;67771;1279;1018164;-61
2023/02/19 13:48:06;;;;;;;;;;;;;;;7.59;88.72;98621.11;67722;1279;1016380;-62
2023/02/19 13:51:09;;;;;;;;;;;;;;;7.41;87.32;98619.93;67746;1279;1016493;-62
2023/02/19 13:54:12;;;;;;;;;;;;;;;7.42;90.47;98623.73;67779;1279;1016353;-61
2023/02/19 13:57:14;;;;;;;;;;;;;;;7.47;87.85;98628.52;67781;1279;1016929;-61
2023/02/19 14:00:17;;;;;;;;;;;;;;;7.35;86.97;98637.98;67735;1279;1016292;-61
2023/02/19 14:03:19;;;;;;;;;;;;;;;7.24;84.64;98645.52;67799;1279;1016073;-61
2023/02/19 14:06:21;;;;;;;;;;;;;;;7.11;81.79;98657.63;67783;1279;1016255;-61
2023/02/19 14:09:24;;;;;;;;;;;;;;;7.02;81.61;98660.17;67787;1279;1016374;-61
2023/02/19 14:12:27;;;;;;;;;;;;;;;7.04;82.41;98654.13;67743;1279;1015808;-61
2023/02/19 14:15:29;;;;;;;;;;;;;;;7.01;84.00;98657.77;67772;1279;1015882;-62
2023/02/19 14:18:31;;;;;;;;;;;;;;;7.03;82.80;98654.90;67802;1279;1016160;-61
2023/02/19 14:21:34;;;;;;;;;;;;;;;7.06;81.69;98661.02;67772;1279;1016520;-61
2023/02/19 14:24:36;;;;;;;;;;;;;;;7.14;78.54;98672.26;67741;1279;1018781;-61
2023/02/19 14:27:39;;;;;;;;;;;;;;;7.18;79.11;98673.30;67759;1279;1016387;-61
2023/02/19 14:30:42;;;;;;;;;;;;;;;7.10;77.68;98675.27;67758;1279;1016082;-61
2023/02/19 14:33:44;;;;;;;;;;;;;;;6.97;76.17;98693.64;67743;1279;1016485;-61
2023/02/19 14:36:49;;;;;;;;;;;;;;;6.86;75.82;98696.93;67722;1279;1017723;-61
2023/02/19 14:39:53;;;;;;;;;;;;;;;6.86;77.36;98700.23;67793;1279;1016779;-61
2023/02/19 14:42:56;;;;;;;;;;;;;;;6.81;76.01;98702.55;67764;1279;1018020;-60
2023/02/19 14:46:06;;;;;;;;;;;;;;;6.76;78.92;98705.21;64896;1279;6655180;-60
2023/02/19 14:49:09;;;;;;;;;;;;;;;6.72;78.60;98709.55;67766;1279;1016282;-61
2023/02/19 14:52:12;;;;;;;;;;;;;;;6.73;79.39;98716.11;67781;1279;1016311;-62
2023/02/19 14:55:15;;;;;;;;;;;;;;;6.81;80.76;98717.52;67754;1279;1018355;-61
2023/02/19 14:58:17;;;;;;;;;;;;;;;6.77;79.21;98721.16;67801;1279;1016485;-61
2023/02/19 15:01:20;;;;;;;;;;;;;;;6.71;78.89;98725.60;67804;1279;1016517;-61
2023/02/19 15:04:22;;;;;;;;;;;;;;;6.64;80.87;98730.61;67725;1279;1017486;-61
2023/02/19 15:07:26;;;;;;;;;;;;;;;6.57;80.16;98733.52;67738;1279;1016263;-61
2023/02/19 15:10:29;;;;;;;;;;;;;;;6.50;81.01;98738.71;67758;1279;1016517;-61
2023/02/19 15:13:31;;;;;;;;;;;;;;;6.44;81.71;98731.72;67819;1279;1016159;-61
2023/02/19 15:16:34;;;;;;;;;;;;;;;6.37;81.18;98741.73;67771;1279;1016363;-61
2023/02/19 15:19:38;;;;;;;;;;;;;;;6.32;80.24;98748.59;67726;1279;1016373;-61
2023/02/19 15:22:41;;;;;;;;;;;;;;;6.27;80.47;98745.49;67759;1279;1016530;-61
2023/02/19 15:25:43;;;;;;;;;;;;;;;6.26;81.31;98746.44;67808;1279;1016361;-61
2023/02/19 15:28:46;;;;;;;;;;;;;;;6.30;82.57;98747.61;67779;1279;1017987;-61
2023/02/19 15:31:49;;;;;;;;;;;;;;;6.30;82.34;98754.23;67736;1279;1017520;-61
2023/02/19 15:34:51;;;;;;;;;;;;;;;6.22;80.73;98755.08;67734;1279;1017271;-60
2023/02/19 15:37:55;;;;;;;;;;;;;;;6.30;82.00;98748.65;67777;1279;1018498;-61
2023/02/19 15:40:57;;;;;;;;;;;;;;;6.23;81.46;98758.86;67724;1279;1015999;-61
2023/02/19 15:43:59;;;;;;;;;;;;;;;6.12;82.29;98748.41;67745;1279;1016715;-61
2023/02/19 15:47:02;;;;;;;;;;;;;;;6.06;82.60;98750.77;67780;1279;1016436;-61
2023/02/19 15:50:05;;;;;;;;;;;;;;;6.05;82.26;98765.21;67769;1279;1016434;-61